Decoded Metar for KCGS (COLLEGE PARK in MD, USA) (IATA:CGS) | Meteo·Mobile Aviation Weather
aviador You're here:

KCGS Decoded Metar

COLLEGE PARK in MD, USA
Report Time2019-11-16 02:15:00
UTC Time2019-11-16 02:42:10
Flight Rules vfr VFR
WindCalm
Visibility9999 m
Phenomena:N/A
Clouds:N/A
Expected CloudBase > 2,000 ft AGL from Temp-Dew spread
CeilingNone
Temp02°C (ISA -13)
Dew Point-3°C (70% RH)
AAT-0.4°C
QNH1023 hPa
Density Alt-1,795 ft
Elevation49 ft
Report Wrong Elevation
Raw Report
KCGS 160215Z AUTO 00000KT 10SM CLR 02/M03 A3022 RMK AO1
T00201027=

Extra information for KCGS:More info

Metar Taf Metar & Taf Last 4 Metars F.Rules Stats Wind Profile Meteogram Temp Stats Airport Information Weather charts Add Link Nearby VenuesMetar ALERT Operation Metar Decoded Social comments

AIRNAV info for KCGS